Time;durP1;ratioP1;P1;durP2;ratioP2;P2;SDS_P1;SDS_P2;PMS_P1;PMS_P2;Temp;Humidity;BMP_temperature;BMP_pressure;BME280_temperature;BME280_humidity;BME280_pressure;Samples;Min_cycle;Max_cycle;Signal;HPM_P1;HPM_P2
2022/03/30 00:01:01;;;;;;;;;;;;;;;21.77;38.61;100627.13;5056333;28;20234;-86
2022/03/30 00:03:26;;;;;;;;;;;;;;;21.76;38.32;100625.53;5070855;28;20007;-85
2022/03/30 00:05:52;;;;;;;;;;;;;;;21.75;38.31;100621.97;5037540;28;19978;-85
2022/03/30 00:08:17;;;;;;;;;;;;;;;21.76;38.53;100617.28;5055666;28;19921;-85
2022/03/30 00:10:42;;;;;;;;;;;;;;;21.76;38.50;100617.28;5055474;28;20357;-84
2022/03/30 00:13:08;;;;;;;;;;;;;;;21.74;38.64;100616.78;5055361;28;20430;-86
2022/03/30 00:15:34;;;;;;;;;;;;;;;21.74;38.42;100614.03;5071086;28;20250;-81
2022/03/30 00:17:59;;;;;;;;;;;;;;;21.73;38.57;100607.72;5055222;28;19999;-86
2022/03/30 00:20:24;;;;;;;;;;;;;;;21.73;38.65;100606.94;5037199;28;19921;-84
2022/03/30 00:22:49;;;;;;;;;;;;;;;21.72;38.35;100603.38;5070148;28;20011;-85
2022/03/30 00:25:15;;;;;;;;;;;;;;;21.71;38.51;100604.47;5054018;28;19990;-85
2022/03/30 00:27:46;;;;;;;;;;;;;;;21.71;38.25;100596.25;5054947;28;19928;-85
2022/03/30 00:30:11;;;;;;;;;;;;;;;21.71;38.61;100603.69;5052964;28;19920;-86
2022/03/30 00:32:37;;;;;;;;;;;;;;;21.70;38.52;100602.06;5055107;28;19928;-85
2022/03/30 00:35:03;;;;;;;;;;;;;;;21.70;38.52;100604.81;5069760;28;19940;-86
2022/03/30 00:37:28;;;;;;;;;;;;;;;21.70;38.27;100607.56;5069866;28;19931;-84
2022/03/30 00:39:53;;;;;;;;;;;;;;;21.69;38.65;100603.19;5070318;28;19974;-85
2022/03/30 00:42:20;;;;;;;;;;;;;;;21.69;38.59;100605.94;5054600;28;19939;-84
2022/03/30 00:44:48;;;;;;;;;;;;;;;21.68;38.46;100604.31;5055355;28;19939;-85
2022/03/30 00:47:19;;;;;;;;;;;;;;;21.67;38.44;100600.78;5036800;28;19928;-85
2022/03/30 00:49:45;;;;;;;;;;;;;;;21.67;38.49;100602.69;5036671;28;19917;-86
2022/03/30 00:52:10;;;;;;;;;;;;;;;21.67;38.38;100605.44;5037520;28;19921;-85
2022/03/30 00:54:41;;;;;;;;;;;;;;;21.66;38.34;100604.63;5070361;28;19917;-80
2022/03/30 00:57:08;;;;;;;;;;;;;;;21.66;38.41;100606.59;5054562;28;19946;-85
2022/03/30 00:59:33;;;;;;;;;;;;;;;21.65;38.50;100602.22;5054234;28;19970;-86
2022/03/30 01:01:59;;;;;;;;;;;;;;;21.66;38.43;100601.09;5054477;28;19917;-84
2022/03/30 01:04:27;;;;;;;;;;;;;;;21.65;38.46;100599.47;5055034;28;19928;-85
2022/03/30 01:06:53;;;;;;;;;;;;;;;21.64;38.51;100595.91;5054109;28;19916;-85
2022/03/30 01:09:18;;;;;;;;;;;;;;;21.64;38.55;100600.59;5053999;28;20391;-84
2022/03/30 01:11:44;;;;;;;;;;;;;;;21.64;38.43;100595.09;5053408;28;19925;-85
2022/03/30 01:14:10;;;;;;;;;;;;;;;21.63;38.46;100586.03;5036619;28;20383;-85
2022/03/30 01:16:35;;;;;;;;;;;;;;;21.61;38.33;100578.09;5054487;28;20280;-85
2022/03/30 01:19:02;;;;;;;;;;;;;;;21.62;38.39;100581.69;5054418;28;19921;-86
2022/03/30 01:21:27;;;;;;;;;;;;;;;21.61;38.56;100578.09;5054186;28;19917;-85
2022/03/30 01:23:52;;;;;;;;;;;;;;;21.61;38.63;100577.31;5069868;28;19921;-86
2022/03/30 01:26:18;;;;;;;;;;;;;;;21.60;38.57;100571.00;5053863;28;20380;-86
2022/03/30 01:28:43;;;;;;;;;;;;;;;21.60;38.24;100573.75;5053836;28;19927;-84
2022/03/30 01:33:53;;;;;;;;;;;;;;;21.59;38.27;100569.38;5067650;28;19932;-82
2022/03/30 01:36:18;;;;;;;;;;;;;;;21.59;38.24;100568.56;5036013;28;19921;-85
2022/03/30 01:38:44;;;;;;;;;;;;;;;21.59;38.51;100568.56;5036858;28;19924;-85
2022/03/30 01:41:10;;;;;;;;;;;;;;;21.58;38.55;100564.22;5054210;28;19955;-86
2022/03/30 01:43:35;;;;;;;;;;;;;;;21.58;38.26;100566.97;5053571;28;19921;-85
2022/03/30 01:46:01;;;;;;;;;;;;;;;21.56;38.27;100564.53;5053898;28;19917;-86
2022/03/30 01:48:26;;;;;;;;;;;;;;;21.56;38.48;100569.22;5052515;28;19920;-85
2022/03/30 01:50:52;;;;;;;;;;;;;;;21.56;37.98;100567.25;5035779;28;19921;-85
2022/03/30 01:53:17;;;;;;;;;;;;;;;21.55;38.43;100560.16;5053977;28;19928;-85
2022/03/30 01:55:43;;;;;;;;;;;;;;;21.54;38.38;100550.28;5053754;28;19927;-85
2022/03/30 01:58:08;;;;;;;;;;;;;;;21.55;38.47;100551.13;5035945;28;19921;-85
2022/03/30 02:00:33;;;;;;;;;;;;;;;21.55;38.22;100553.88;5053933;28;19951;-85
2022/03/30 02:02:58;;;;;;;;;;;;;;;21.54;38.51;100538.50;5036344;28;20015;-85
2022/03/30 02:05:24;;;;;;;;;;;;;;;21.53;38.34;100543.19;5054417;28;20285;-83
2022/03/30 02:07:50;;;;;;;;;;;;;;;21.54;38.41;100543.97;5053813;28;19939;-85
2022/03/30 02:10:15;;;;;;;;;;;;;;;21.53;38.30;100548.69;5053389;28;19917;-84
2022/03/30 02:12:40;;;;;;;;;;;;;;;21.52;38.48;100541.56;5068944;28;19921;-84
2022/03/30 02:15:06;;;;;;;;;;;;;;;21.52;38.42;100538.81;5053440;28;19917;-85
2022/03/30 02:17:32;;;;;;;;;;;;;;;21.51;38.39;100545.44;5053712;28;19916;-85
2022/03/30 02:19:58;;;;;;;;;;;;;;;21.51;38.46;100544.63;5053340;28;19923;-86
2022/03/30 02:22:23;;;;;;;;;;;;;;;21.50;38.13;100535.59;5035768;28;19956;-86
2022/03/30 02:24:49;;;;;;;;;;;;;;;21.50;38.24;100535.59;5053391;28;19955;-86
2022/03/30 02:27:15;;;;;;;;;;;;;;;21.49;38.45;100527.66;5053076;28;19916;-86
2022/03/30 02:29:40;;;;;;;;;;;;;;;21.50;38.33;100521.84;5051844;28;19979;-84
2022/03/30 02:32:06;;;;;;;;;;;;;;;21.48;38.36;100513.09;5068791;28;19916;-85
2022/03/30 02:34:31;;;;;;;;;;;;;;;21.48;38.18;100510.34;5068775;28;20369;-85
2022/03/30 02:36:56;;;;;;;;;;;;;;;21.47;38.18;100503.25;5068587;28;19923;-85
2022/03/30 02:39:22;;;;;;;;;;;;;;;21.47;38.43;100500.50;5053117;28;19923;-85
2022/03/30 02:41:47;;;;;;;;;;;;;;;21.47;38.47;100502.44;5053667;28;19921;-85
2022/03/30 02:44:15;;;;;;;;;;;;;;;21.47;38.42;100510.66;5035527;28;20319;-85
2022/03/30 02:46:41;;;;;;;;;;;;;;;21.47;38.35;100507.91;5035033;28;19950;-85
2022/03/30 02:49:06;;;;;;;;;;;;;;;21.47;38.42;100496.94;5036022;28;19928;-86
2022/03/30 02:51:31;;;;;;;;;;;;;;;21.47;38.46;100496.94;5052573;28;19956;-85
2022/03/30 02:53:57;;;;;;;;;;;;;;;21.45;38.06;100485.47;5053043;28;19917;-85
2022/03/30 02:56:22;;;;;;;;;;;;;;;21.45;38.18;100500.03;5053142;28;19917;-82
2022/03/30 02:58:47;;;;;;;;;;;;;;;21.45;38.27;100496.47;5053974;28;19927;-78
2022/03/30 03:01:13;;;;;;;;;;;;;;;21.45;38.46;100491.78;5072741;28;19921;-82
2022/03/30 03:03:38;;;;;;;;;;;;;;;21.43;38.45;100488.53;5039219;28;19961;-84
2022/03/30 03:06:04;;;;;;;;;;;;;;;21.44;38.33;100489.34;5038899;28;19921;-85
2022/03/30 03:08:29;;;;;;;;;;;;;;;21.44;37.96;100489.34;5055355;28;19920;-84
2022/03/30 03:10:54;;;;;;;;;;;;;;;21.42;38.05;100484.19;5056348;28;20020;-84
2022/03/30 03:13:20;;;;;;;;;;;;;;;21.42;38.14;100481.44;5072002;28;19924;-84
2022/03/30 03:15:46;;;;;;;;;;;;;;;21.42;38.54;100478.69;5055200;28;19921;-84
2022/03/30 03:18:12;;;;;;;;;;;;;;;21.42;38.24;100475.09;5056369;28;19927;-85
2022/03/30 03:20:40;;;;;;;;;;;;;;;21.42;38.42;100477.84;5056219;28;19920;-85
2022/03/30 03:23:06;;;;;;;;;;;;;;;21.41;38.21;100479.81;5056192;28;20004;-85
2022/03/30 03:25:35;;;;;;;;;;;;;;;21.41;38.05;100479.00;5055193;28;19971;-85
2022/03/30 03:28:01;;;;;;;;;;;;;;;21.40;38.16;100475.44;5056326;28;19935;-85
2022/03/30 03:30:27;;;;;;;;;;;;;;;21.39;38.37;100479.31;5038513;28;20276;-85
2022/03/30 03:32:52;;;;;;;;;;;;;;;21.39;38.44;100468.31;5056507;28;19964;-84
2022/03/30 03:35:17;;;;;;;;;;;;;;;21.39;38.12;100482.06;5054899;28;19925;-84
2022/03/30 03:37:43;;;;;;;;;;;;;;;21.37;37.96;100471.38;5055674;28;19932;-84
2022/03/30 03:40:09;;;;;;;;;;;;;;;21.38;38.45;100474.91;5038304;28;19925;-85
2022/03/30 03:42:34;;;;;;;;;;;;;;;21.37;38.41;100474.13;5072359;28;19928;-83
2022/03/30 03:45:00;;;;;;;;;;;;;;;21.38;38.22;100472.19;5055643;28;20322;-85
2022/03/30 03:47:25;;;;;;;;;;;;;;;21.38;38.44;100469.44;5055881;28;20003;-85
2022/03/30 03:49:50;;;;;;;;;;;;;;;21.37;38.37;100467.81;5055790;28;19952;-85
2022/03/30 03:52:16;;;;;;;;;;;;;;;21.37;38.28;100473.31;5055682;28;20296;-84
2022/03/30 03:54:41;;;;;;;;;;;;;;;21.35;38.26;100468.13;5071234;28;20448;-84
2022/03/30 03:57:07;;;;;;;;;;;;;;;21.35;38.10;100470.88;5056243;28;20392;-85
2022/03/30 03:59:32;;;;;;;;;;;;;;;21.35;38.38;100468.13;5038252;28;20265;-85
2022/03/30 04:01:58;;;;;;;;;;;;;;;21.35;38.37;100464.59;5055514;28;20323;-85
2022/03/30 04:04:23;;;;;;;;;;;;;;;21.35;38.04;100467.34;5055452;28;19917;-84
2022/03/30 04:06:49;;;;;;;;;;;;;;;21.34;37.88;100461.03;5037148;28;20296;-85
2022/03/30 04:09:14;;;;;;;;;;;;;;;21.34;38.01;100460.19;5055536;28;19921;-85
2022/03/30 04:11:39;;;;;;;;;;;;;;;21.34;38.18;100462.94;5054520;28;19924;-85
2022/03/30 04:14:04;;;;;;;;;;;;;;;21.33;38.09;100458.59;5055309;28;19962;-85
2022/03/30 04:16:30;;;;;;;;;;;;;;;21.33;38.31;100461.34;5055435;28;19947;-85
2022/03/30 04:18:55;;;;;;;;;;;;;;;21.32;38.28;100457.78;5055472;28;20012;-85
2022/03/30 04:21:21;;;;;;;;;;;;;;;21.32;38.37;100466.03;5037303;28;19925;-85
2022/03/30 04:23:46;;;;;;;;;;;;;;;21.32;38.05;100462.50;5070481;28;19958;-84
2022/03/30 04:26:12;;;;;;;;;;;;;;;21.32;38.29;100465.22;5037433;28;19970;-85
2022/03/30 04:28:40;;;;;;;;;;;;;;;21.31;38.28;100469.91;5070309;28;19931;-84
2022/03/30 04:31:06;;;;;;;;;;;;;;;21.30;38.26;100457.31;5054947;28;19921;-85
2022/03/30 04:33:32;;;;;;;;;;;;;;;21.30;38.01;100453.75;5054988;28;19923;-84
2022/03/30 04:35:57;;;;;;;;;;;;;;;21.30;38.16;100456.50;5055185;28;19925;-84
2022/03/30 04:38:22;;;;;;;;;;;;;;;21.30;38.25;100462.00;5070428;28;19960;-84
2022/03/30 04:40:47;;;;;;;;;;;;;;;21.29;38.29;100457.63;5054034;28;19920;-83
2022/03/30 04:43:12;;;;;;;;;;;;;;;21.29;38.16;100458.44;5070772;28;19927;-85
2022/03/30 04:45:38;;;;;;;;;;;;;;;21.28;38.34;100453.25;5036934;28;19975;-84
2022/03/30 04:48:03;;;;;;;;;;;;;;;21.28;38.09;100453.25;5053689;28;19921;-85
2022/03/30 04:50:28;;;;;;;;;;;;;;;21.27;38.30;100452.47;5054721;28;20011;-84
2022/03/30 04:52:54;;;;;;;;;;;;;;;21.28;38.42;100458.75;5054762;28;19928;-83
2022/03/30 04:55:19;;;;;;;;;;;;;;;21.26;38.27;100453.56;5070153;28;19921;-84
2022/03/30 04:57:45;;;;;;;;;;;;;;;21.27;38.22;100448.88;5070048;28;19921;-80
2022/03/30 05:00:10;;;;;;;;;;;;;;;21.26;37.96;100456.31;5069979;28;19998;-82
2022/03/30 05:02:36;;;;;;;;;;;;;;;21.26;38.11;100453.56;5054874;28;20272;-83
2022/03/30 05:05:02;;;;;;;;;;;;;;;21.25;38.26;100449.22;5053444;28;20360;-83
2022/03/30 05:07:27;;;;;;;;;;;;;;;21.25;38.15;100448.41;5054562;28;19924;-83
2022/03/30 05:09:52;;;;;;;;;;;;;;;21.25;38.03;100448.41;5069244;28;19922;-83
2022/03/30 05:12:18;;;;;;;;;;;;;;;21.25;38.15;100445.66;5054414;28;19917;-83
2022/03/30 05:14:43;;;;;;;;;;;;;;;21.23;37.94;100451.47;5054672;28;19921;-83
2022/03/30 05:17:09;;;;;;;;;;;;;;;21.24;38.15;100444.03;5054085;28;19923;-83
2022/03/30 05:19:34;;;;;;;;;;;;;;;21.23;38.24;100451.47;5052876;28;20269;-83
2022/03/30 05:22:00;;;;;;;;;;;;;;;21.23;37.98;100447.94;5036244;28;20388;-82
2022/03/30 05:24:25;;;;;;;;;;;;;;;21.22;38.05;100441.63;5052843;28;19921;-82
2022/03/30 05:26:50;;;;;;;;;;;;;;;21.21;37.95;100442.75;5069119;28;20284;-82
2022/03/30 05:29:16;;;;;;;;;;;;;;;21.22;38.10;100443.53;5054155;28;19990;-83
2022/03/30 05:31:42;;;;;;;;;;;;;;;21.21;37.79;100434.50;5053906;28;20353;-85
2022/03/30 05:34:07;;;;;;;;;;;;;;;21.21;37.93;100447.44;5053676;28;19975;-85
2022/03/30 05:36:32;;;;;;;;;;;;;;;21.21;38.18;100442.75;5053614;28;20340;-84
2022/03/30 05:38:57;;;;;;;;;;;;;;;21.20;38.20;100440.34;5053965;28;20013;-83
2022/03/30 05:41:23;;;;;;;;;;;;;;;21.20;38.27;100437.59;5053882;28;19927;-82
2022/03/30 05:43:48;;;;;;;;;;;;;;;21.20;38.18;100438.38;5053541;28;20262;-84
2022/03/30 05:46:13;;;;;;;;;;;;;;;21.20;38.11;100432.09;5069253;28;20287;-84
2022/03/30 05:48:38;;;;;;;;;;;;;;;21.19;38.00;100431.25;5053924;28;19920;-84
2022/03/30 05:51:04;;;;;;;;;;;;;;;21.18;38.06;100426.91;5053583;28;20353;-83
2022/03/30 05:53:29;;;;;;;;;;;;;;;21.16;38.27;100431.91;5053997;28;19917;-89
2022/03/30 05:55:57;;;;;;;;;;;;;;;21.15;38.36;100430.31;5053862;28;19923;-85
2022/03/30 05:58:23;;;;;;;;;;;;;;;21.15;38.33;100431.09;5053683;28;19939;-85
2022/03/30 06:00:50;;;;;;;;;;;;;;;21.17;38.25;100431.59;5053734;28;20314;-84
2022/03/30 06:03:16;;;;;;;;;;;;;;;21.16;38.45;100432.72;5052371;28;19925;-84
2022/03/30 06:05:42;;;;;;;;;;;;;;;21.18;38.39;100429.66;5036062;28;20291;-85
2022/03/30 06:08:07;;;;;;;;;;;;;;;21.19;38.54;100442.25;5053396;28;20400;-86
2022/03/30 06:10:32;;;;;;;;;;;;;;;21.18;38.38;100444.19;5053663;28;20269;-86
2022/03/30 06:12:58;;;;;;;;;;;;;;;21.19;38.39;100447.75;5053195;28;19924;-86
2022/03/30 06:15:24;;;;;;;;;;;;;;;21.20;38.50;100448.56;5053928;28;19928;-85
2022/03/30 06:17:50;;;;;;;;;;;;;;;21.20;38.46;100452.13;5053899;28;19924;-86
2022/03/30 06:20:15;;;;;;;;;;;;;;;21.21;38.63;100455.66;5053826;28;19917;-85
2022/03/30 06:22:41;;;;;;;;;;;;;;;21.21;38.59;100450.97;5053920;28;19961;-86
2022/03/30 06:25:07;;;;;;;;;;;;;;;21.20;38.40;100456.81;5035394;28;20349;-83
2022/03/30 06:27:32;;;;;;;;;;;;;;;21.19;38.56;100455.97;5053223;28;20011;-83
2022/03/30 06:29:58;;;;;;;;;;;;;;;21.20;38.34;100454.06;5035353;28;19948;-84
2022/03/30 06:32:23;;;;;;;;;;;;;;;21.21;38.56;100458.41;5035282;28;19917;-83
2022/03/30 06:34:48;;;;;;;;;;;;;;;21.21;38.60;100452.91;5054566;28;19946;-83
2022/03/30 06:37:14;;;;;;;;;;;;;;;21.22;38.49;100454.53;5056441;28;20375;-82
2022/03/30 06:39:39;;;;;;;;;;;;;;;21.22;38.58;100449.88;5055759;28;19921;-83
2022/03/30 06:42:05;;;;;;;;;;;;;;;21.22;38.69;100455.38;5072702;28;19974;-83
2022/03/30 06:44:31;;;;;;;;;;;;;;;21.21;38.58;100447.44;5058229;28;19947;-87
2022/03/30 06:46:57;;;;;;;;;;;;;;;21.22;38.62;100438.03;5057498;28;19917;-88
2022/03/30 06:49:23;;;;;;;;;;;;;;;21.22;38.63;100444.38;5039841;28;19924;-86
2022/03/30 06:51:48;;;;;;;;;;;;;;;21.23;38.52;100445.19;5072431;28;19945;-85
2022/03/30 06:54:16;;;;;;;;;;;;;;;21.23;38.61;100451.47;5057519;28;19923;-83
2022/03/30 06:56:42;;;;;;;;;;;;;;;21.24;38.63;100452.28;5059123;28;19925;-87
2022/03/30 06:59:07;;;;;;;;;;;;;;;21.24;38.57;100455.03;5058515;28;19928;-83
2022/03/30 07:01:32;;;;;;;;;;;;;;;21.24;38.49;100452.28;5072871;28;19951;-82
2022/03/30 07:03:58;;;;;;;;;;;;;;;21.24;38.62;100455.81;5056842;28;19920;-82
2022/03/30 07:06:23;;;;;;;;;;;;;;;21.23;38.25;100453.41;5071642;28;19959;-86
2022/03/30 07:11:32;;;;;;;;;;;;;;;21.24;38.36;100449.53;5057413;28;19986;-87
2022/03/30 07:13:58;;;;;;;;;;;;;;;21.24;38.22;100455.03;5038620;28;20412;-88
2022/03/30 07:16:23;;;;;;;;;;;;;;;21.24;38.45;100460.50;5038437;28;20371;-87
2022/03/30 07:18:49;;;;;;;;;;;;;;;21.24;38.48;100452.28;5071958;28;19971;-85
2022/03/30 07:21:14;;;;;;;;;;;;;;;21.24;38.19;100455.81;5038416;28;19972;-83
2022/03/30 07:23:40;;;;;;;;;;;;;;;21.25;38.38;100451.16;5055802;28;20265;-84
2022/03/30 07:26:05;;;;;;;;;;;;;;;21.24;38.42;100453.06;5071276;28;19967;-84
2022/03/30 07:28:31;;;;;;;;;;;;;;;21.25;38.17;100448.41;5071368;28;19928;-87
2022/03/30 07:30:56;;;;;;;;;;;;;;;21.24;38.06;100447.59;5072026;28;20281;-88
2022/03/30 07:33:23;;;;;;;;;;;;;;;21.24;38.18;100436.59;5054727;28;19921;-89
2022/03/30 07:35:49;;;;;;;;;;;;;;;21.24;38.22;100436.59;5070699;28;19968;-86
2022/03/30 07:38:25;;;;;;;;;;;;;;;21.24;38.16;100444.84;5055932;28;20391;-84
2022/03/30 07:44:05;;;;;;;;;;;;;;;21.24;38.07;100441.28;5021058;28;19924;-89
2022/03/30 07:46:30;;;;;;;;;;;;;;;21.23;38.07;100447.94;5055352;28;19917;-87
2022/03/30 07:48:56;;;;;;;;;;;;;;;21.23;38.12;100445.19;5038267;28;19939;-85
2022/03/30 07:51:21;;;;;;;;;;;;;;;21.24;38.05;100441.28;5070796;28;20389;-84
2022/03/30 07:53:46;;;;;;;;;;;;;;;21.24;38.10;100441.28;5055172;28;20339;-83
2022/03/30 07:56:11;;;;;;;;;;;;;;;21.25;38.26;100449.22;5055529;28;19961;-83
2022/03/30 07:58:37;;;;;;;;;;;;;;;21.25;38.18;100448.41;5056386;28;19924;-83
2022/03/30 08:01:02;;;;;;;;;;;;;;;21.25;38.34;100451.97;5036967;28;20453;-86
2022/03/30 08:03:27;;;;;;;;;;;;;;;21.27;38.31;100462.63;5055012;28;19920;-82
2022/03/30 08:05:52;;;;;;;;;;;;;;;21.27;38.18;100459.88;5055211;28;19971;-81
2022/03/30 08:08:18;;;;;;;;;;;;;;;21.27;38.22;100451.63;5055304;28;19921;-85
2022/03/30 08:10:43;;;;;;;;;;;;;;;21.27;38.33;100457.94;5055137;28;19925;-85
2022/03/30 08:13:10;;;;;;;;;;;;;;;21.28;38.22;100462.31;5070486;28;19921;-85
2022/03/30 08:15:36;;;;;;;;;;;;;;;21.29;38.22;100461.19;5054859;28;19966;-85
2022/03/30 08:18:02;;;;;;;;;;;;;;;21.30;38.45;100456.50;5070554;28;20018;-87
2022/03/30 08:23:12;;;;;;;;;;;;;;;21.31;38.42;100458.09;5055387;28;19928;-82
2022/03/30 08:25:37;;;;;;;;;;;;;;;21.30;38.49;100454.56;5054372;28;19921;-84
2022/03/30 08:28:03;;;;;;;;;;;;;;;21.30;38.55;100459.25;5054973;28;20232;-83
2022/03/30 08:30:28;;;;;;;;;;;;;;;21.30;38.27;100445.50;5054958;28;19931;-89
2022/03/30 08:32:54;;;;;;;;;;;;;;;21.31;38.52;100447.91;5037330;28;20018;-89
2022/03/30 08:35:21;;;;;;;;;;;;;;;21.32;38.55;100454.25;5037027;28;19925;-86
2022/03/30 08:37:46;;;;;;;;;;;;;;;21.32;38.46;100452.31;5070393;28;19917;-88
2022/03/30 08:40:11;;;;;;;;;;;;;;;21.34;38.59;100440.97;5037815;28;19923;-88
2022/03/30 08:42:38;;;;;;;;;;;;;;;21.34;38.28;100443.72;5054982;28;20266;-87
2022/03/30 08:45:05;;;;;;;;;;;;;;;21.34;38.63;100440.97;5069641;28;20386;-83
2022/03/30 08:47:31;;;;;;;;;;;;;;;21.34;38.45;100433.56;5037928;28;19960;-83
2022/03/30 08:49:56;;;;;;;;;;;;;;;21.36;38.58;100433.22;5054352;28;20408;-83
2022/03/30 08:52:22;;;;;;;;;;;;;;;21.35;38.58;100435.16;5069668;28;19925;-81
2022/03/30 08:54:50;;;;;;;;;;;;;;;21.36;38.45;100433.22;5053785;28;19928;-80
2022/03/30 08:57:15;;;;;;;;;;;;;;;21.37;38.32;100429.34;5035867;28;19917;-81
2022/03/30 09:00:03;;;;;;;;;;;;;;;21.37;38.28;100427.41;5054366;28;19928;-81
2022/03/30 09:02:33;;;;;;;;;;;;;;;21.37;38.52;100419.16;5044185;28;19917;-79
2022/03/30 09:05:15;;;;;;;;;;;;;;;21.37;38.29;100415.63;5053253;28;20006;-80
2022/03/30 09:07:41;;;;;;;;;;;;;;;21.37;38.49;100419.16;5036198;28;20395;-81
2022/03/30 09:10:11;;;;;;;;;;;;;;;21.38;38.61;100417.22;5053212;28;19921;-80
2022/03/30 09:12:37;;;;;;;;;;;;;;;21.40;38.44;100423.25;5035923;28;19917;-83
2022/03/30 09:15:04;;;;;;;;;;;;;;;21.41;38.28;100427.59;5035898;28;19932;-83
2022/03/30 09:17:35;;;;;;;;;;;;;;;21.42;38.47;100420.16;5053813;28;19916;-83
2022/03/30 09:20:03;;;;;;;;;;;;;;;21.42;38.35;100420.16;5053559;28;19917;-83
2022/03/30 09:22:28;;;;;;;;;;;;;;;21.43;38.39;100419.03;5035554;28;20395;-83
2022/03/30 09:24:54;;;;;;;;;;;;;;;21.44;38.59;100420.66;5053637;28;19925;-84
2022/03/30 09:27:23;;;;;;;;;;;;;;;21.44;38.53;100423.38;5035651;28;19927;-83
2022/03/30 09:29:49;;;;;;;;;;;;;;;21.44;38.28;100415.94;5053478;28;20353;-84
2022/03/30 09:32:14;;;;;;;;;;;;;;;21.45;38.29;100414.84;5052804;28;20429;-82
2022/03/30 09:34:47;;;;;;;;;;;;;;;21.46;38.39;100418.38;5051965;28;20314;-81
2022/03/30 09:37:13;;;;;;;;;;;;;;;21.47;38.39;100417.25;5053317;28;19920;-81
2022/03/30 09:39:38;;;;;;;;;;;;;;;21.48;38.38;100407.88;5069460;28;19947;-81
2022/03/30 09:42:05;;;;;;;;;;;;;;;21.47;38.33;100407.09;5035788;28;19917;-80
2022/03/30 09:44:43;;;;;;;;;;;;;;;21.48;38.42;100407.88;5053724;28;19924;-82
2022/03/30 09:47:08;;;;;;;;;;;;;;;21.49;38.57;100404.00;5053969;28;19917;-82
2022/03/30 09:49:43;;;;;;;;;;;;;;;21.50;38.31;100403.69;5053855;28;19916;-81
2022/03/30 09:52:15;;;;;;;;;;;;;;;21.51;38.38;100401.72;5053409;28;20450;-82
2022/03/30 09:54:47;;;;;;;;;;;;;;;21.51;38.39;100396.22;5036025;28;19958;-79
2022/03/30 09:57:21;;;;;;;;;;;;;;;21.51;38.50;100399.78;5053511;28;19929;-80
2022/03/30 09:59:58;;;;;;;;;;;;;;;21.52;38.54;100392.34;5054258;28;20005;-82
2022/03/30 10:02:23;;;;;;;;;;;;;;;21.53;38.56;100393.97;5036023;28;19961;-81
2022/03/30 10:04:49;;;;;;;;;;;;;;;21.53;38.50;100394.78;5035414;28;20316;-80
2022/03/30 10:07:15;;;;;;;;;;;;;;;21.54;38.38;100381.84;5053096;28;19971;-81
2022/03/30 10:09:42;;;;;;;;;;;;;;;21.54;38.54;100382.63;5071598;28;19974;-82
2022/03/30 10:12:07;;;;;;;;;;;;;;;21.55;38.61;100380.72;5056191;28;19951;-81
2022/03/30 10:14:34;;;;;;;;;;;;;;;21.55;38.54;100378.78;5039210;28;20299;-81
2022/03/30 10:16:59;;;;;;;;;;;;;;;21.56;38.43;100374.88;5072686;28;19951;-82
2022/03/30 10:19:25;;;;;;;;;;;;;;;21.57;38.45;100381.19;5072852;28;19994;-82
2022/03/30 10:22:10;;;;;;;;;;;;;;;21.56;38.39;100376.84;5055483;28;19971;-82
2022/03/30 10:24:38;;;;;;;;;;;;;;;21.55;38.63;100377.97;5039124;28;20361;-85
2022/03/30 10:27:07;;;;;;;;;;;;;;;21.55;38.68;100375.22;5039138;28;20403;-81
2022/03/30 10:29:33;;;;;;;;;;;;;;;21.55;38.62;100366.97;5038925;28;19927;-81
2022/03/30 10:32:07;;;;;;;;;;;;;;;21.56;38.68;100368.59;5057349;28;19963;-82
2022/03/30 10:34:38;;;;;;;;;;;;;;;21.57;38.43;100362.78;5039425;28;21422;-80
2022/03/30 10:37:07;;;;;;;;;;;;;;;21.58;38.36;100358.88;5071900;28;19921;-82
2022/03/30 10:39:32;;;;;;;;;;;;;;;21.58;38.65;100350.63;5039010;28;19921;-84
2022/03/30 10:42:11;;;;;;;;;;;;;;;21.59;38.60;100351.44;5055537;28;19921;-80
2022/03/30 10:44:57;;;;;;;;;;;;;;;21.60;38.83;100353.88;5056404;28;19917;-80
2022/03/30 10:47:24;;;;;;;;;;;;;;;21.61;38.52;100346.44;5056542;28;19924;-81
2022/03/30 10:49:57;;;;;;;;;;;;;;;21.62;38.55;100345.31;5038793;28;19917;-82
2022/03/30 10:52:30;;;;;;;;;;;;;;;21.61;38.37;100341.72;5071810;28;19917;-82
2022/03/30 10:55:24;;;;;;;;;;;;;;;21.63;38.75;100337.88;5038707;28;19917;-81
2022/03/30 10:57:57;;;;;;;;;;;;;;;21.63;38.55;100327.69;5038883;28;19917;-81
2022/03/30 11:00:23;;;;;;;;;;;;;;;21.65;38.57;100333.66;5071555;28;20015;-81
2022/03/30 11:02:49;;;;;;;;;;;;;;;21.66;38.70;100323.47;5038619;28;19917;-81
2022/03/30 11:05:15;;;;;;;;;;;;;;;21.66;38.51;100320.72;5056432;28;20386;-82
2022/03/30 11:07:41;;;;;;;;;;;;;;;21.66;38.70;100327.00;5038527;28;19916;-83
2022/03/30 11:10:33;;;;;;;;;;;;;;;21.66;38.71;100316.03;5071759;28;19921;-82
2022/03/30 11:13:00;;;;;;;;;;;;;;;21.67;38.40;100312.16;5014746;28;20006;-80
2022/03/30 11:15:26;;;;;;;;;;;;;;;21.70;38.53;100299.69;5056503;28;19917;-83
2022/03/30 11:17:51;;;;;;;;;;;;;;;21.70;38.59;100307.94;5055586;28;20262;-82
2022/03/30 11:20:19;;;;;;;;;;;;;;;21.71;38.64;100318.59;5037891;28;19917;-83
2022/03/30 11:22:46;;;;;;;;;;;;;;;21.72;38.59;100311.16;5055933;28;19943;-83
2022/03/30 11:25:22;;;;;;;;;;;;;;;21.72;38.55;100302.91;5055376;28;20020;-82
2022/03/30 11:27:57;;;;;;;;;;;;;;;21.73;38.39;100305.31;5038169;28;20348;-82
2022/03/30 11:30:23;;;;;;;;;;;;;;;21.73;38.70;100299.84;5056184;28;19970;-81
2022/03/30 11:32:52;;;;;;;;;;;;;;;21.74;38.58;100304.19;5071653;28;19921;-81
2022/03/30 11:35:22;;;;;;;;;;;;;;;21.75;38.40;100297.56;5055534;28;20392;-82
2022/03/30 11:38:06;;;;;;;;;;;;;;;21.76;38.47;100287.38;5055695;28;19913;-82
2022/03/30 11:40:34;;;;;;;;;;;;;;;21.76;38.50;100288.16;5056138;28;19947;-82
2022/03/30 11:42:59;;;;;;;;;;;;;;;21.76;38.53;100276.38;5055724;28;19930;-82
2022/03/30 11:45:27;;;;;;;;;;;;;;;21.77;38.38;100283.47;5055664;28;19912;-82
2022/03/30 11:47:54;;;;;;;;;;;;;;;21.77;38.59;100275.22;5038002;28;19950;-82
2022/03/30 11:50:25;;;;;;;;;;;;;;;21.78;38.45;100274.91;5055527;28;19912;-82
2022/03/30 11:52:55;;;;;;;;;;;;;;;21.78;38.62;100274.91;5055920;28;19940;-83
2022/03/30 11:55:21;;;;;;;;;;;;;;;21.78;38.32;100274.09;5055352;28;20042;-83
2022/03/30 11:57:46;;;;;;;;;;;;;;;21.78;38.48;100268.59;5055150;28;19939;-82
2022/03/30 12:00:11;;;;;;;;;;;;;;;21.77;38.57;100278.81;5053500;28;19929;-83
2022/03/30 12:02:38;;;;;;;;;;;;;;;21.78;38.27;100268.59;5055454;28;19921;-84
2022/03/30 12:05:04;;;;;;;;;;;;;;;21.78;38.43;100271.34;5055180;28;19916;-83
2022/03/30 12:07:32;;;;;;;;;;;;;;;21.78;38.35;100269.41;5055241;28;20430;-83
2022/03/30 12:09:57;;;;;;;;;;;;;;;21.78;38.60;100266.66;5055183;28;19950;-83
2022/03/30 12:12:27;;;;;;;;;;;;;;;21.78;38.22;100266.66;5053814;28;19920;-85
2022/03/30 12:14:59;;;;;;;;;;;;;;;21.80;38.60;100263.59;5055579;28;20040;-82
2022/03/30 12:17:25;;;;;;;;;;;;;;;21.80;38.21;100266.34;5037638;28;20284;-81
2022/03/30 12:19:54;;;;;;;;;;;;;;;21.80;38.56;100258.91;5037749;28;20411;-81
2022/03/30 12:22:19;;;;;;;;;;;;;;;21.81;38.36;100262.44;5037121;28;19939;-82
2022/03/30 12:24:45;;;;;;;;;;;;;;;21.81;38.22;100259.69;5055234;28;19916;-81
2022/03/30 12:27:11;;;;;;;;;;;;;;;21.82;38.40;100255.78;5070704;28;19924;-81
2022/03/30 12:29:37;;;;;;;;;;;;;;;21.85;38.60;100257.09;5055760;28;19921;-81
2022/03/30 12:32:03;;;;;;;;;;;;;;;21.85;38.52;100255.16;5069601;28;20315;-84
2022/03/30 12:34:34;;;;;;;;;;;;;;;21.87;38.20;100252.88;5054633;28;19927;-82
2022/03/30 12:37:01;;;;;;;;;;;;;;;21.86;38.38;100245.75;5052437;28;19927;-82
2022/03/30 12:39:26;;;;;;;;;;;;;;;21.87;38.32;100247.38;5037420;28;19967;-82
2022/03/30 12:41:59;;;;;;;;;;;;;;;21.88;38.17;100240.75;5036575;28;20331;-85
2022/03/30 12:44:26;;;;;;;;;;;;;;;21.88;38.63;100238.00;5054375;28;20015;-84